Time;durP1;ratioP1;P1;durP2;ratioP2;P2;SDS_P1;SDS_P2;PMS_P1;PMS_P2;Temp;Humidity;BMP_temperature;BMP_pressure;BME280_temperature;BME280_humidity;BME280_pressure;Samples;Min_cycle;Max_cycle;Signal;HPM_P1;HPM_P2
2023/08/26 00:04:35;;;;;;;14.77;6.68;;;;;;;22.12;78.66;99637.13;10246223;29;20082;-75
2023/08/26 00:09:36;;;;;;;13.77;7.35;;;;;;;22.18;78.59;99636.03;10248219;28;20082;-75
2023/08/26 00:14:38;;;;;;;11.70;5.18;;;;;;;22.04;78.77;99629.44;10235991;28;20088;-77
2023/08/26 00:19:39;;;;;;;10.32;5.45;;;;;;;21.94;78.88;99634.88;10235966;28;20118;-78
2023/08/26 00:24:41;;;;;;;12.50;5.57;;;;;;;21.89;79.23;99638.41;10250351;28;20115;-76
2023/08/26 00:29:42;;;;;;;9.93;5.50;;;;;;;21.90;78.84;99634.59;10243489;28;20119;-73
2023/08/26 00:34:44;;;;;;;11.25;5.22;;;;;;;21.92;78.76;99626.94;10244126;28;20375;-77
2023/08/26 00:39:45;;;;;;;16.02;6.72;;;;;;;22.00;78.64;99631.06;10245552;28;20042;-75
2023/08/26 00:44:46;;;;;;;9.10;4.07;;;;;;;21.82;79.12;99640.59;10240625;28;20122;-75
2023/08/26 00:49:48;;;;;;;8.55;3.65;;;;;;;21.77;79.16;99654.25;10247344;28;20117;-76
2023/08/26 00:54:49;;;;;;;8.27;3.15;;;;;;;21.74;79.26;99635.59;10239957;28;20043;-76
2023/08/26 00:59:51;;;;;;;9.38;3.65;;;;;;;21.74;79.21;99600.88;10244295;28;20316;-79
2023/08/26 01:04:53;;;;;;;7.65;3.92;;;;;;;21.82;79.18;99605.03;10246883;28;20364;-80
2023/08/26 01:09:55;;;;;;;6.18;3.05;;;;;;;21.85;79.07;99634.56;10243232;28;20312;-79
2023/08/26 01:15:02;;;;;;;6.53;3.40;;;;;;;21.85;79.11;99629.09;10239520;28;20090;-76
2023/08/26 01:20:05;;;;;;;8.15;2.58;;;;;;;21.95;78.92;99626.38;10241230;28;20047;-76
2023/08/26 01:25:07;;;;;;;4.68;3.08;;;;;;;21.85;78.93;99631.00;10238913;28;20074;-77
2023/08/26 01:30:12;;;;;;;4.57;2.20;;;;;;;21.84;78.89;99630.19;10242417;28;20055;-74
2023/08/26 01:35:23;;;;;;;6.43;2.88;;;;;;;21.86;78.58;99629.91;10254146;28;20059;-74
2023/08/26 01:40:27;;;;;;;4.80;2.28;;;;;;;21.80;79.10;99626.34;10239515;28;20189;-77
2023/08/26 01:45:28;;;;;;;2.67;2.42;;;;;;;21.77;78.50;99635.91;10243058;29;20118;-77
2023/08/26 01:50:30;;;;;;;6.63;2.60;;;;;;;21.76;78.60;99645.22;10235435;28;20047;-72
2023/08/26 01:55:31;;;;;;;7.13;2.10;;;;;;;21.79;78.54;99654.78;10232813;28;20363;-74
2023/08/26 02:00:33;;;;;;;3.90;2.25;;;;;;;21.79;78.46;99657.53;10241810;28;20051;-75
2023/08/26 02:05:34;;;;;;;6.18;2.90;;;;;;;21.80;78.30;99661.94;10242110;28;20051;-76
2023/08/26 02:10:35;;;;;;;7.13;2.05;;;;;;;21.83;78.29;99675.06;10238736;28;20287;-75
2023/08/26 02:15:37;;;;;;;3.80;2.38;;;;;;;21.81;78.07;99677.25;10242197;28;20094;-77
2023/08/26 02:20:42;;;;;;;5.85;2.90;;;;;;;21.82;78.31;99691.72;10203757;28;1014081;-74
2023/08/26 02:25:43;;;;;;;7.78;4.43;;;;;;;21.74;78.73;99690.31;10234055;28;20453;-75
2023/08/26 02:30:46;;;;;;;10.57;6.57;;;;;;;21.72;78.81;99685.16;10229449;28;20083;-75
2023/08/26 02:35:48;;;;;;;9.13;6.45;;;;;;;21.78;78.36;99699.66;10229863;28;20054;-74
2023/08/26 02:40:53;;;;;;;9.10;6.53;;;;;;;21.70;78.04;99695.53;10240833;28;20055;-74
2023/08/26 02:45:56;;;;;;;9.60;6.13;;;;;;;21.78;77.57;99705.13;10249416;28;20071;-75
2023/08/26 02:51:02;;;;;;;9.65;6.20;;;;;;;21.68;77.16;99721.47;10241082;28;20048;-74
2023/08/26 02:56:03;;;;;;;10.60;6.30;;;;;;;21.63;77.11;99722.28;10242211;28;20054;-75
2023/08/26 03:01:06;;;;;;;12.25;6.22;;;;;;;21.64;76.06;99729.41;10252788;28;20062;-75
2023/08/26 03:06:08;;;;;;;7.32;5.05;;;;;;;21.57;75.85;99751.53;10237199;28;20055;-74
2023/08/26 03:11:10;;;;;;;8.60;4.93;;;;;;;21.46;75.40;99741.59;10250387;28;20047;-76
2023/08/26 03:16:11;;;;;;;6.38;3.72;;;;;;;21.34;75.16;99755.41;10252401;28;20043;-74
2023/08/26 03:21:14;;;;;;;4.72;4.07;;;;;;;21.29;75.01;99762.78;10237782;28;20370;-75
2023/08/26 03:26:15;;;;;;;7.38;4.60;;;;;;;21.22;75.20;99759.44;10208646;28;20035;-77
2023/08/26 03:31:17;;;;;;;7.82;4.35;;;;;;;21.06;75.18;99764.75;10253183;28;20052;-75
2023/08/26 03:36:21;;;;;;;5.85;4.95;;;;;;;20.70;75.80;99764.44;10244277;28;20343;-75
2023/08/26 03:41:22;;;;;;;6.85;5.05;;;;;;;20.65;75.96;99777.19;10218753;28;20051;-75
2023/08/26 03:46:25;;;;;;;9.98;5.53;;;;;;;20.74;74.81;99773.75;10232081;28;20102;-75
2023/08/26 03:51:26;;;;;;;7.25;5.63;;;;;;;20.75;74.81;99775.41;10265555;28;20039;-75
2023/08/26 03:56:28;;;;;;;7.07;5.30;;;;;;;20.82;74.50;99791.59;10227944;28;20062;-75
2023/08/26 04:01:31;;;;;;;9.75;6.68;;;;;;;20.85;74.51;99793.78;10239692;28;20118;-76
2023/08/26 04:06:33;;;;;;;11.88;7.22;;;;;;;20.86;74.74;99794.63;10263601;28;20062;-75
2023/08/26 04:11:34;;;;;;;11.57;7.00;;;;;;;20.86;74.99;99798.19;10245578;28;20054;-75
2023/08/26 04:16:36;;;;;;;13.20;8.30;;;;;;;20.81;74.60;99800.84;10248134;28;20077;-77
2023/08/26 04:21:37;;;;;;;11.23;7.30;;;;;;;20.79;75.00;99787.47;10232523;28;20122;-75
2023/08/26 04:26:39;;;;;;;12.45;6.97;;;;;;;20.65;75.06;99807.25;10245866;28;20050;-75
2023/08/26 04:31:40;;;;;;;8.98;6.43;;;;;;;20.47;75.45;99814.66;10239277;28;20051;-72
2023/08/26 04:36:41;;;;;;;14.40;7.25;;;;;;;20.57;75.44;99820.22;10231309;28;20534;-72
2023/08/26 04:41:43;;;;;;;14.88;8.07;;;;;;;20.61;74.92;99823.31;10244561;28;20062;-73
2023/08/26 04:46:44;;;;;;;12.60;7.85;;;;;;;20.57;75.25;99830.34;10244257;28;20060;-71
2023/08/26 04:51:51;;;;;;;11.73;7.40;;;;;;;20.49;75.14;99826.16;10236714;28;20048;-73
2023/08/26 04:56:53;;;;;;;;;;;;;;;20.45;75.32;99846.84;10243113;28;20054;-72
2023/08/26 05:01:54;;;;;;;10.55;6.60;;;;;;;20.43;75.39;99849.00;10251137;28;20052;-71
2023/08/26 05:06:55;;;;;;;13.25;6.72;;;;;;;20.41;75.70;99857.44;10232742;28;20059;-72
2023/08/26 05:11:57;;;;;;;8.95;5.47;;;;;;;20.44;76.07;99863.47;10244977;28;20058;-74
2023/08/26 05:16:59;;;;;;;6.93;4.30;;;;;;;20.44;75.58;99872.53;10243575;28;20054;-72
2023/08/26 05:22:02;;;;;;;6.72;3.95;;;;;;;20.49;75.21;99882.66;10244413;28;20348;-73
2023/08/26 05:27:04;;;;;;;3.50;1.48;;;;;;;20.34;74.79;99891.47;10242595;28;20082;-71
2023/08/26 05:32:06;;;;;;;2.45;0.70;;;;;;;20.23;73.46;99895.97;10239496;28;20279;-72
2023/08/26 05:37:07;;;;;;;2.20;0.73;;;;;;;20.07;72.06;99900.38;10248926;28;20135;-72
2023/08/26 05:42:08;;;;;;;5.22;0.57;;;;;;;20.06;71.11;99906.91;10245391;28;20089;-72
2023/08/26 05:47:10;;;;;;;2.17;0.40;;;;;;;20.14;70.04;99917.41;10242737;28;20122;-71
2023/08/26 05:52:11;;;;;;;2.05;0.82;;;;;;;20.13;69.61;99915.75;10245904;28;20055;-71
2023/08/26 05:57:13;;;;;;;3.75;0.40;;;;;;;20.05;67.80;99927.09;10244494;28;20247;-71
2023/08/26 06:02:14;;;;;;;2.33;0.30;;;;;;;20.05;67.65;99931.72;10238462;28;20059;-73
2023/08/26 06:07:16;;;;;;;1.73;0.38;;;;;;;19.95;65.32;99935.13;10242734;28;20126;-71
2023/08/26 06:12:18;;;;;;;1.80;0.30;;;;;;;19.86;64.75;99942.88;10244937;28;20051;-73
2023/08/26 06:17:19;;;;;;;1.13;0.73;;;;;;;19.85;64.56;99956.78;10240523;28;20115;-73
2023/08/26 06:22:20;;;;;;;1.10;0.30;;;;;;;19.76;63.96;99959.88;10240039;28;20070;-72
2023/08/26 06:27:23;;;;;;;1.25;0.40;;;;;;;19.68;62.96;99971.19;10246233;28;20130;-72
2023/08/26 06:32:24;;;;;;;0.38;0.20;;;;;;;19.76;63.12;99978.16;10256016;28;20106;-71
2023/08/26 06:37:26;;;;;;;4.07;0.40;;;;;;;19.78;63.04;99976.84;10249233;28;20055;-71
2023/08/26 06:42:27;;;;;;;0.60;0.30;;;;;;;19.80;63.15;99979.31;10249273;28;20069;-70
2023/08/26 06:47:28;;;;;;;2.03;0.20;;;;;;;19.93;63.46;99991.84;10249259;28;20279;-71
2023/08/26 06:52:30;;;;;;;1.60;0.40;;;;;;;19.95;62.74;99990.50;10244607;28;20066;-70
2023/08/26 06:57:31;;;;;;;1.05;0.30;;;;;;;20.09;62.83;99979.28;10247447;28;20043;-70
2023/08/26 07:02:33;;;;;;;2.17;0.40;;;;;;;20.23;62.82;99980.59;10247156;28;20051;-71
2023/08/26 07:07:36;;;;;;;0.70;0.40;;;;;;;20.19;62.76;99982.16;10248767;28;20047;-68
2023/08/26 07:12:37;;;;;;;2.85;0.40;;;;;;;20.35;62.43;99986.78;10244635;28;20065;-70
2023/08/26 07:17:39;;;;;;;2.20;0.35;;;;;;;20.52;62.60;99986.75;10249173;28;20070;-71
2023/08/26 07:22:40;;;;;;;2.92;0.88;;;;;;;20.71;62.08;99973.66;10245577;28;20154;-71
2023/08/26 07:27:42;;;;;;;3.53;0.20;;;;;;;20.79;61.31;99969.66;10248688;28;20131;-71
2023/08/26 07:32:43;;;;;;;1.17;0.30;;;;;;;20.86;60.48;99964.84;10244000;28;20064;-70
2023/08/26 07:37:44;;;;;;;1.05;0.20;;;;;;;21.08;60.09;99955.81;10225856;28;20248;-70
2023/08/26 07:42:46;;;;;;;1.55;0.30;;;;;;;21.37;59.77;99953.69;10244507;28;20319;-71
2023/08/26 07:47:48;;;;;;;0.95;0.30;;;;;;;21.44;58.88;99964.47;10241235;28;20077;-68
2023/08/26 07:52:53;;;;;;;4.88;0.45;;;;;;;21.45;58.45;99953.28;10239906;28;20051;-67
2023/08/26 07:57:55;;;;;;;0.30;0.20;;;;;;;21.49;57.40;99964.53;10241920;28;20299;-68
2023/08/26 08:02:56;;;;;;;1.13;0.20;;;;;;;21.70;56.73;99965.53;10243916;28;20078;-68
2023/08/26 08:07:58;;;;;;;1.60;0.32;;;;;;;21.77;56.80;99966.97;10244047;28;20054;-68
2023/08/26 08:12:59;;;;;;;1.60;0.98;;;;;;;21.74;56.57;99967.50;10243076;28;20055;-67
2023/08/26 08:18:02;;;;;;;0.40;0.20;;;;;;;21.64;56.22;99966.56;10244402;28;20127;-68
2023/08/26 08:23:04;;;;;;;0.70;0.20;;;;;;;21.59;55.78;99968.19;10253969;28;20054;-66
2023/08/26 08:28:05;;;;;;;0.35;0.20;;;;;;;21.71;55.26;99956.25;10243755;28;20051;-71
2023/08/26 08:33:07;;;;;;;0.30;0.20;;;;;;;21.85;55.09;99964.84;10243866;28;20063;-73
2023/08/26 08:38:08;;;;;;;3.10;0.30;;;;;;;21.68;54.45;99976.75;10238188;28;20115;-71
2023/08/26 08:43:15;;;;;;;0.55;0.20;;;;;;;21.86;54.40;99966.50;10238263;28;20052;-71
2023/08/26 08:48:18;;;;;;;0.63;0.32;;;;;;;22.01;53.87;99963.91;10239033;28;20130;-72
2023/08/26 08:53:32;;;;;;;3.50;0.65;;;;;;;22.18;53.67;99967.31;10237934;28;20110;-71
2023/08/26 08:58:34;;;;;;;1.52;0.20;;;;;;;22.38;53.17;99974.06;10246381;28;20707;-71
2023/08/26 09:03:36;;;;;;;1.02;0.20;;;;;;;22.54;53.42;99972.25;10244000;28;20054;-70
2023/08/26 09:08:38;;;;;;;0.20;0.10;;;;;;;22.64;52.58;99980.53;10240020;28;20047;-70
2023/08/26 09:13:39;;;;;;;2.75;0.30;;;;;;;22.73;52.19;99980.88;10239402;28;20119;-72
2023/08/26 09:18:40;;;;;;;2.35;0.20;;;;;;;22.85;52.11;99969.66;10247566;28;20062;-71
2023/08/26 09:23:43;;;;;;;0.50;0.30;;;;;;;22.95;51.63;99966.97;10239535;28;20633;-72
2023/08/26 09:28:50;;;;;;;3.10;0.40;;;;;;;23.05;51.78;99967.06;10243593;28;20043;-71
2023/08/26 09:34:00;;;;;;;2.35;0.20;;;;;;;23.13;51.00;99969.28;10246254;28;20077;-71
2023/08/26 09:39:02;;;;;;;1.50;0.35;;;;;;;23.06;51.23;99965.94;10243931;28;20067;-71
2023/08/26 09:44:04;;;;;;;0.40;0.20;;;;;;;23.16;50.59;99960.53;10241938;28;20052;-70
2023/08/26 09:49:06;;;;;;;3.95;0.30;;;;;;;23.16;50.08;99960.53;10238904;28;20107;-70
2023/08/26 09:54:09;;;;;;;0.15;0.10;;;;;;;23.14;49.77;99959.97;10242018;28;20116;-71
2023/08/26 09:59:11;;;;;;;5.20;4.43;;;;;;;23.08;49.73;99966.50;10231907;28;20123;-72
2023/08/26 10:04:25;;;;;;;2.85;1.08;;;;;;;23.21;49.43;99956.97;10245685;28;20082;-71
2023/08/26 10:09:39;;;;;;;32.50;24.23;;;;;;;23.32;48.87;99955.06;10242021;28;20058;-70
2023/08/26 10:14:43;;;;;;;4.53;1.20;;;;;;;23.40;48.49;99957.28;10243452;28;20142;-72
2023/08/26 10:19:44;;;;;;;1.17;0.43;;;;;;;23.75;48.08;99948.25;10230002;28;20065;-70
2023/08/26 10:24:46;;;;;;;1.98;0.30;;;;;;;23.71;47.69;99944.41;10238285;28;20058;-69
2023/08/26 10:29:48;;;;;;;1.95;0.88;;;;;;;24.05;47.50;99945.81;10239754;28;20126;-69
2023/08/26 10:34:57;;;;;;;4.43;0.22;;;;;;;24.15;46.90;99941.16;10239033;28;20058;-69
2023/08/26 10:40:08;;;;;;;2.90;0.20;;;;;;;24.40;45.78;99949.63;10232725;28;20067;-69
2023/08/26 10:45:14;;;;;;;0.32;0.17;;;;;;;24.63;44.91;99949.06;10236381;28;20044;-69
2023/08/26 10:50:16;;;;;;;2.15;0.30;;;;;;;24.65;44.76;99946.84;10241940;28;20157;-69
2023/08/26 10:55:21;;;;;;;1.17;0.57;;;;;;;24.91;43.83;99944.84;10226370;28;20058;-70
2023/08/26 11:00:22;;;;;;;1.42;0.25;;;;;;;25.12;43.50;99947.50;10239398;28;20074;-69
2023/08/26 11:05:24;;;;;;;0.68;0.45;;;;;;;25.21;43.39;99947.72;10238585;28;20111;-70
2023/08/26 11:10:30;;;;;;;3.80;0.40;;;;;;;25.45;42.65;99929.44;10241289;28;20119;-69
2023/08/26 11:15:39;;;;;;;1.77;0.20;;;;;;;25.45;42.08;99926.69;10243741;28;20044;-69
2023/08/26 11:20:43;;;;;;;1.73;0.73;;;;;;;25.52;42.71;99923.63;10249985;28;20277;-70
2023/08/26 11:25:44;;;;;;;0.50;0.20;;;;;;;25.78;41.73;99932.50;10249249;28;20050;-70
2023/08/26 11:30:46;;;;;;;1.02;0.20;;;;;;;25.87;41.95;99936.28;10247898;28;20145;-69
2023/08/26 11:35:49;;;;;;;0.70;0.20;;;;;;;26.18;42.32;99922.25;10255069;28;20111;-69
2023/08/26 11:41:08;;;;;;;0.70;0.20;;;;;;;26.18;42.28;99929.72;10246008;28;20048;-70
2023/08/26 11:46:10;;;;;;;4.35;0.50;;;;;;;26.42;41.85;99927.81;10244515;28;20119;-70
2023/08/26 11:51:13;;;;;;;0.82;0.38;;;;;;;26.55;41.91;99931.81;10266670;28;20066;-70
2023/08/26 11:56:15;;;;;;;0.90;0.25;;;;;;;26.16;41.38;99918.97;10248597;28;20103;-70
2023/08/26 12:01:16;;;;;;;0.75;0.10;;;;;;;26.25;40.68;99928.25;10252610;28;20110;-69
2023/08/26 12:06:18;;;;;;;2.35;0.40;;;;;;;26.20;40.82;99922.78;10267957;28;20051;-69
2023/08/26 12:11:20;;;;;;;0.68;0.20;;;;;;;26.16;40.86;99930.00;10269443;28;20252;-70
2023/08/26 12:16:22;;;;;;;4.30;0.30;;;;;;;26.45;40.33;99935.50;10266656;28;21286;-72
2023/08/26 12:21:23;;;;;;;1.70;0.80;;;;;;;26.29;40.49;99934.84;10282737;28;20047;-72
2023/08/26 12:26:25;;;;;;;1.80;0.20;;;;;;;26.46;40.59;99945.41;10270870;28;20043;-70
2023/08/26 12:31:27;;;;;;;1.52;0.17;;;;;;;26.84;39.93;99945.56;10268144;28;20043;-70
2023/08/26 12:36:29;;;;;;;2.30;0.20;;;;;;;27.12;38.94;99950.47;10260600;28;20051;-71
2023/08/26 12:41:30;;;;;;;1.50;0.22;;;;;;;26.88;39.48;99948.56;10268410;28;20641;-70
2023/08/26 12:46:33;;;;;;;2.95;0.20;;;;;;;27.33;38.61;99924.25;10271570;28;20360;-70
2023/08/26 12:51:34;;;;;;;3.60;0.65;;;;;;;27.82;37.43;99939.47;10256877;28;20059;-70
2023/08/26 12:56:36;;;;;;;1.23;0.17;;;;;;;27.47;38.55;99947.22;10272567;28;20055;-71
2023/08/26 13:01:37;;;;;;;0.70;0.32;;;;;;;27.41;38.45;99940.16;10267226;28;20059;-70
2023/08/26 13:06:39;;;;;;;1.90;0.20;;;;;;;27.41;38.55;99936.53;10254438;28;20093;-69
2023/08/26 13:11:40;;;;;;;2.22;0.25;;;;;;;27.80;38.04;99930.69;10271001;28;20052;-68
2023/08/26 13:16:42;;;;;;;0.95;0.20;;;;;;;28.22;37.82;99926.13;10265479;28;20066;-70
2023/08/26 13:21:43;;;;;;;0.43;0.20;;;;;;;27.98;37.38;99918.00;10251895;28;20370;-70
2023/08/26 13:27:10;;;;;;;0.50;0.20;;;;;;;28.03;36.94;99906.84;10272553;28;20043;-70
2023/08/26 13:32:29;;;;;;;0.40;0.20;;;;;;;27.92;36.92;99899.84;10259071;29;20038;-66
2023/08/26 13:38:09;;;;;;;1.60;0.10;;;;;;;27.98;36.42;99906.09;10275198;28;20046;-69
2023/08/26 13:43:31;;;;;;;0.45;0.15;;;;;;;28.24;36.14;99900.97;10246033;28;20034;-70
2023/08/26 13:49:16;;;;;;;2.35;0.52;;;;;;;28.32;36.13;99896.63;10269019;28;20038;-68
2023/08/26 13:54:35;;;;;;;2.60;0.28;;;;;;;28.27;35.85;99895.63;10298995;28;20043;-70
2023/08/26 14:00:20;;;;;;;1.05;0.20;;;;;;;28.57;35.43;99890.63;10270274;28;20043;-69
2023/08/26 14:05:55;;;;;;;1.48;0.25;;;;;;;29.47;35.01;99890.06;10281334;28;20045;-69
2023/08/26 14:11:36;;;;;;;1.38;0.20;;;;;;;29.76;34.58;99888.84;10296392;28;20095;-69
2023/08/26 14:17:34;;;;;;;0.95;0.22;;;;;;;29.46;33.54;99880.97;10262542;28;20050;-70
2023/08/26 14:23:14;;;;;;;2.58;0.30;;;;;;;30.75;32.05;99880.34;10264140;28;20031;-70
2023/08/26 14:28:22;;;;;;;0.98;0.38;;;;;;;31.68;30.25;99884.69;10269041;23;20106;-62
2023/08/26 14:33:24;;;;;;;1.60;0.50;;;;;;;32.51;28.90;99891.81;10228051;28;20488;-61
2023/08/26 14:38:26;;;;;;;6.13;0.30;;;;;;;32.55;29.17;99883.63;10230756;28;20062;-60
2023/08/26 14:43:27;;;;;;;1.33;0.40;;;;;;;32.75;28.43;99866.16;10261679;28;20138;-59
2023/08/26 14:48:29;;;;;;;0.65;0.30;;;;;;;32.37;28.86;99855.06;10235345;28;20391;-60
2023/08/26 14:53:32;;;;;;;0.93;0.60;;;;;;;31.47;29.70;99855.94;10236411;28;20058;-62
2023/08/26 14:58:33;;;;;;;0.55;0.30;;;;;;;30.42;30.56;99844.69;10229929;28;20057;-59
2023/08/26 15:03:35;;;;;;;0.98;0.30;;;;;;;29.39;30.94;99836.25;10236479;28;20066;-60
2023/08/26 15:08:36;;;;;;;0.80;0.20;;;;;;;29.31;31.79;99825.94;10240182;28;20046;-60
2023/08/26 15:13:38;;;;;;;0.65;0.20;;;;;;;29.15;31.31;99808.88;10233885;28;20043;-60
2023/08/26 15:18:39;;;;;;;1.05;0.20;;;;;;;28.91;31.46;99797.25;10221872;28;20058;-61
2023/08/26 15:23:41;;;;;;;0.95;0.38;;;;;;;28.92;31.39;99794.16;10204728;28;20051;-62
2023/08/26 15:28:43;;;;;;;1.05;0.20;;;;;;;28.52;32.30;99798.69;10221601;29;20054;-61
2023/08/26 15:33:44;;;;;;;0.70;0.20;;;;;;;28.44;32.40;99789.94;10247716;28;20047;-62
2023/08/26 15:38:46;;;;;;;0.50;0.20;;;;;;;28.81;32.01;99785.31;10226716;28;20051;-60
2023/08/26 15:43:49;;;;;;;1.02;0.28;;;;;;;28.80;32.11;99796.66;10233642;28;20047;-61
2023/08/26 15:48:50;;;;;;;1.35;0.30;;;;;;;28.28;32.23;99794.16;10227456;28;20413;-61
2023/08/26 15:53:52;;;;;;;0.22;0.10;;;;;;;28.32;32.62;99803.47;10229096;28;20415;-61
2023/08/26 15:58:53;;;;;;;0.85;0.20;;;;;;;28.46;32.64;99800.69;10229514;28;20407;-61
2023/08/26 16:03:55;;;;;;;2.80;0.20;;;;;;;28.47;32.41;99805.09;10235411;28;20047;-62
2023/08/26 16:08:57;;;;;;;0.80;0.22;;;;;;;28.24;32.66;99815.25;10226301;28;20051;-63
2023/08/26 16:13:58;;;;;;;0.80;0.43;;;;;;;28.41;32.72;99811.88;10229816;28;20050;-63
2023/08/26 16:19:01;;;;;;;1.73;0.50;;;;;;;28.28;33.23;99805.22;10237581;28;20067;-62
2023/08/26 16:24:03;;;;;;;0.73;0.30;;;;;;;27.84;33.98;99799.16;10229628;28;20035;-62
2023/08/26 16:29:04;;;;;;;1.48;0.30;;;;;;;27.84;33.70;99823.16;10229014;28;20063;-62
2023/08/26 16:34:06;;;;;;;1.80;0.30;;;;;;;27.86;33.88;99824.53;10229035;28;20067;-63
2023/08/26 16:39:08;;;;;;;0.80;0.40;;;;;;;27.83;34.39;99829.81;10230804;28;20047;-62
2023/08/26 16:44:09;;;;;;;1.77;0.32;;;;;;;27.98;34.62;99831.50;10223083;28;20070;-64
2023/08/26 16:49:11;;;;;;;4.15;0.40;;;;;;;27.74;35.59;99828.88;10209848;28;20134;-64
2023/08/26 16:54:12;;;;;;;1.75;0.40;;;;;;;27.17;37.14;99828.97;10226442;28;20047;-62
2023/08/26 16:59:14;;;;;;;1.30;0.32;;;;;;;26.75;37.68;99838.94;10227993;28;20464;-63
2023/08/26 17:04:15;;;;;;;0.98;0.38;;;;;;;26.36;38.18;99831.69;10228533;28;20051;-63
2023/08/26 17:09:17;;;;;;;1.55;0.40;;;;;;;26.17;38.59;99829.72;10247475;28;20028;-65
2023/08/26 17:14:18;;;;;;;2.08;0.60;;;;;;;26.06;38.67;99820.72;10249890;28;20597;-67
2023/08/26 17:19:20;;;;;;;0.70;0.47;;;;;;;25.81;39.15;99824.56;10236412;28;20119;-62
2023/08/26 17:24:23;;;;;;;2.92;0.88;;;;;;;25.46;40.01;99818.25;10217515;28;20135;-62
2023/08/26 17:29:25;;;;;;;2.25;0.57;;;;;;;25.27;40.36;99825.56;10220483;28;20063;-63
2023/08/26 17:34:26;;;;;;;2.58;0.93;;;;;;;25.07;40.89;99827.31;10220428;28;20125;-65
2023/08/26 17:39:28;;;;;;;1.42;0.50;;;;;;;25.10;41.00;99824.00;10218386;28;20047;-64
2023/08/26 17:44:30;;;;;;;1.48;0.50;;;;;;;25.16;41.56;99837.72;10214271;28;20372;-64
2023/08/26 17:49:31;;;;;;;1.85;0.70;;;;;;;25.15;42.13;99831.38;10222184;28;20047;-64
2023/08/26 17:54:33;;;;;;;0.85;0.45;;;;;;;25.05;42.33;99839.72;10217896;28;20047;-66
2023/08/26 17:59:34;;;;;;;2.33;0.70;;;;;;;24.98;42.63;99842.78;10217146;28;20129;-66
2023/08/26 18:04:37;;;;;;;5.32;0.60;;;;;;;24.79;43.17;99845.38;10221714;28;20044;-64
2023/08/26 18:09:38;;;;;;;1.63;0.60;;;;;;;24.59;43.68;99856.47;10217012;28;20113;-63
2023/08/26 18:14:40;;;;;;;2.08;0.80;;;;;;;24.32;43.68;99860.38;10222300;28;20058;-62
2023/08/26 18:19:41;;;;;;;2.13;0.60;;;;;;;24.16;44.03;99873.31;10232180;28;20051;-63
2023/08/26 18:24:43;;;;;;;2.80;0.60;;;;;;;23.97;44.42;99877.75;10231210;28;20052;-62
2023/08/26 18:29:44;;;;;;;3.13;0.60;;;;;;;23.86;44.82;99886.00;10239541;28;20047;-62
2023/08/26 18:34:46;;;;;;;3.95;0.60;;;;;;;23.73;45.49;99878.28;10247244;28;20043;-63
2023/08/26 18:39:47;;;;;;;4.43;0.98;;;;;;;23.50;46.10;99885.97;10240469;28;20050;-63
2023/08/26 18:44:49;;;;;;;1.67;0.60;;;;;;;23.24;46.57;99879.59;10247469;28;20082;-63
2023/08/26 18:49:50;;;;;;;4.28;0.50;;;;;;;23.17;46.77;99887.28;10246902;28;20415;-63
2023/08/26 18:54:53;;;;;;;4.13;0.52;;;;;;;23.16;47.21;99888.38;10229939;28;20054;-62
2023/08/26 18:59:54;;;;;;;1.63;0.60;;;;;;;23.06;47.44;99885.63;10235191;28;20377;-63
2023/08/26 19:04:56;;;;;;;1.27;0.60;;;;;;;23.07;47.99;99904.53;10237509;28;20047;-63
2023/08/26 19:09:58;;;;;;;2.50;0.60;;;;;;;22.95;48.03;99904.75;10232021;28;20059;-63
2023/08/26 19:14:59;;;;;;;0.98;0.70;;;;;;;22.82;48.11;99902.50;10235588;28;20075;-64
2023/08/26 19:20:01;;;;;;;2.38;0.82;;;;;;;22.77;48.15;99905.25;10261600;28;20047;-63
2023/08/26 19:25:03;;;;;;;1.65;0.85;;;;;;;22.69;48.42;99900.25;10235835;28;20058;-60
2023/08/26 19:30:06;;;;;;;1.90;1.00;;;;;;;22.61;48.56;99887.06;10237758;28;20055;-61
2023/08/26 19:35:07;;;;;;;2.30;0.90;;;;;;;22.59;48.64;99895.56;10234319;28;20048;-60
2023/08/26 19:40:10;;;;;;;4.18;0.57;;;;;;;22.45;49.14;99897.94;10231448;28;20063;-61
2023/08/26 19:45:11;;;;;;;2.30;0.60;;;;;;;22.33;49.31;99898.19;10235543;28;20054;-59
2023/08/26 19:50:14;;;;;;;2.88;0.75;;;;;;;22.19;49.52;99894.22;10229305;28;20074;-60
2023/08/26 19:55:15;;;;;;;1.42;0.70;;;;;;;22.05;49.88;99901.25;10227197;28;20047;-60
2023/08/26 20:00:17;;;;;;;1.58;0.70;;;;;;;21.99;50.16;99900.38;10227015;28;20591;-61
2023/08/26 20:05:18;;;;;;;2.50;1.10;;;;;;;21.93;50.34;99902.25;10227937;28;20047;-59
2023/08/26 20:10:20;;;;;;;5.80;0.85;;;;;;;21.96;50.58;99907.22;10226713;28;20093;-60
2023/08/26 20:15:21;;;;;;;4.93;1.30;;;;;;;22.02;50.57;99899.00;10229731;28;20047;-60
2023/08/26 20:20:23;;;;;;;3.15;1.70;;;;;;;21.95;51.13;99899.25;10228987;28;20051;-60
2023/08/26 20:25:24;;;;;;;3.17;1.88;;;;;;;21.93;51.30;99907.72;10229301;28;20054;-61
2023/08/26 20:30:35;;;;;;;4.35;2.40;;;;;;;21.88;51.41;99902.22;10221678;28;20079;-60
2023/08/26 20:35:37;;;;;;;3.25;1.95;;;;;;;21.86;51.59;99885.25;10224089;28;20481;-61
2023/08/26 20:40:39;;;;;;;5.65;2.08;;;;;;;21.82;51.73;99892.34;10223650;28;20122;-60
2023/08/26 20:45:40;;;;;;;2.97;1.80;;;;;;;21.65;52.54;99881.50;10224106;28;20415;-59
2023/08/26 20:50:42;;;;;;;3.30;1.55;;;;;;;21.53;53.35;99878.94;10220246;28;20150;-60
2023/08/26 20:55:44;;;;;;;3.53;1.35;;;;;;;21.47;53.76;99873.72;10222125;28;20058;-61
2023/08/26 21:00:45;;;;;;;3.55;1.20;;;;;;;21.40;54.44;99873.88;10244787;28;20385;-61
2023/08/26 21:05:46;;;;;;;4.75;2.78;;;;;;;21.30;54.65;99869.13;10250421;28;20049;-61
2023/08/26 21:10:51;;;;;;;7.20;2.17;;;;;;;21.19;54.83;99865.47;10246352;28;20093;-61
2023/08/26 21:15:52;;;;;;;5.10;1.65;;;;;;;21.03;55.38;99877.34;10252052;28;20114;-61
2023/08/26 21:20:56;;;;;;;2.83;1.00;;;;;;;21.00;55.48;99884.13;10234214;28;20060;-61
2023/08/26 21:25:57;;;;;;;5.22;1.25;;;;;;;20.97;55.30;99887.41;10244900;28;20088;-63
2023/08/26 21:30:59;;;;;;;3.45;1.65;;;;;;;20.99;55.89;99889.84;10244866;28;20051;-61
2023/08/26 21:36:00;;;;;;;3.58;1.90;;;;;;;20.95;55.86;99881.38;10245876;28;20082;-62
2023/08/26 21:41:04;;;;;;;2.30;1.92;;;;;;;20.92;56.57;99875.56;10224992;28;20058;-63
2023/08/26 21:46:06;;;;;;;4.03;1.98;;;;;;;20.86;56.42;99887.53;10236957;28;20480;-61
2023/08/26 21:51:08;;;;;;;5.50;2.40;;;;;;;20.84;57.05;99878.78;10217121;28;20062;-62
2023/08/26 21:56:09;;;;;;;4.90;1.80;;;;;;;20.85;57.03;99877.69;10223142;28;20043;-63
2023/08/26 22:01:10;;;;;;;5.63;2.05;;;;;;;20.79;57.01;99866.69;10223298;28;20044;-60
2023/08/26 22:06:12;;;;;;;4.35;2.03;;;;;;;20.69;57.64;99893.06;10216792;28;20051;-59
2023/08/26 22:11:13;;;;;;;3.88;1.77;;;;;;;20.46;58.29;99900.41;10219432;28;20047;-61
2023/08/26 22:16:15;;;;;;;4.40;1.80;;;;;;;20.44;58.17;99896.25;10222716;28;20528;-61
2023/08/26 22:21:17;;;;;;;4.75;2.25;;;;;;;20.36;57.94;99895.63;10221930;28;20052;-59
2023/08/26 22:26:18;;;;;;;4.70;1.92;;;;;;;20.34;58.25;99892.31;10224694;28;20114;-60
2023/08/26 22:31:19;;;;;;;4.47;2.60;;;;;;;20.26;58.41;99884.56;10213746;28;20504;-60
2023/08/26 22:36:21;;;;;;;6.95;2.30;;;;;;;20.16;59.23;99904.34;10215012;28;20040;-61
2023/08/26 22:41:22;;;;;;;4.93;2.08;;;;;;;20.15;59.32;99896.41;10222208;28;20622;-60
2023/08/26 22:46:24;;;;;;;3.72;2.65;;;;;;;20.11;59.40;99889.78;10217588;28;20058;-60
2023/08/26 22:51:25;;;;;;;2.83;2.00;;;;;;;20.07;59.51;99897.66;10218581;28;20042;-60
2023/08/26 22:56:27;;;;;;;5.20;1.98;;;;;;;19.99;60.00;99887.16;10217321;28;20488;-60
2023/08/26 23:01:28;;;;;;;7.10;2.25;;;;;;;19.92;60.09;99903.69;10214714;28;20039;-59
2023/08/26 23:06:30;;;;;;;6.95;2.28;;;;;;;19.78;60.85;99899.63;10216834;28;20039;-59
2023/08/26 23:11:31;;;;;;;4.03;1.88;;;;;;;19.61;61.34;99888.72;10224306;28;20051;-59
2023/08/26 23:16:33;;;;;;;8.70;1.83;;;;;;;19.60;61.26;99874.22;10224195;28;20039;-60
2023/08/26 23:21:34;;;;;;;4.95;1.52;;;;;;;19.64;61.20;99880.03;10225858;28;20052;-59
2023/08/26 23:26:36;;;;;;;3.75;2.42;;;;;;;19.63;61.26;99842.94;10224858;28;20138;-60
2023/08/26 23:31:37;;;;;;;4.75;2.30;;;;;;;19.56;61.63;99839.53;10227106;28;20386;-59